createdAt,value
2022-10-23T00:00:24.495Z,99710.31
2022-10-23T00:02:27.174Z,99701.66
2022-10-23T00:04:29.837Z,99701.50
2022-10-23T00:06:35.058Z,99709.28
2022-10-23T00:08:37.954Z,99707.88
2022-10-23T00:10:42.467Z,99708.94
2022-10-23T00:12:45.389Z,99706.66
2022-10-23T00:14:48.103Z,99708.53
2022-10-23T00:16:51.068Z,99700.88
2022-10-23T00:18:53.786Z,99710.84
2022-10-23T00:20:57.135Z,99708.06
2022-10-23T00:23:01.160Z,99702.09
2022-10-23T00:25:03.886Z,99703.97
2022-10-23T00:27:06.530Z,99702.53
2022-10-23T00:29:09.823Z,99702.09
2022-10-23T00:31:12.821Z,99701.97
2022-10-23T00:33:15.465Z,99703.75
2022-10-23T00:35:18.199Z,99711.38
2022-10-23T00:37:20.865Z,99707.09
2022-10-23T00:39:24.829Z,99711.78
2022-10-23T00:41:29.954Z,99712.34
2022-10-23T00:43:34.545Z,99709.69
2022-10-23T00:45:37.179Z,99711.78
2022-10-23T00:47:39.987Z,99714.34
2022-10-23T00:49:42.919Z,99704.81
2022-10-23T00:51:49.931Z,99715.22
2022-10-23T00:54:06.704Z,99715.31
2022-10-23T00:56:22.574Z,99703.19
2022-10-23T00:58:25.214Z,99709.84
2022-10-23T01:02:59.206Z,99719.91
2022-10-23T01:05:06.799Z,99719.09
2022-10-23T01:07:16.054Z,99711.94
2022-10-23T01:09:25.301Z,99710.88
2022-10-23T01:11:36.341Z,99708.00
2022-10-23T01:13:45.544Z,99708.72
2022-10-23T01:15:54.590Z,99715.06
2022-10-23T01:18:03.316Z,99712.06
2022-10-23T01:20:21.661Z,99710.31
2022-10-23T01:22:50.808Z,99704.84
2022-10-23T01:24:59.176Z,99698.91
2022-10-23T01:27:27.630Z,99698.91
2022-10-23T01:29:37.757Z,99697.53
2022-10-23T01:31:46.060Z,99699.81
2022-10-23T01:33:52.474Z,99696.00
2022-10-23T01:36:01.422Z,99696.59
2022-10-23T01:38:08.697Z,99693.25
2022-10-23T01:40:21.312Z,99694.50
2022-10-23T01:42:30.177Z,99692.44
2022-10-23T01:44:37.509Z,99693.63
2022-10-23T01:46:41.170Z,99689.66
2022-10-23T01:48:51.281Z,99691.88
2022-10-23T01:50:56.773Z,99685.91
2022-10-23T01:52:59.860Z,99690.22
2022-10-23T01:55:02.982Z,99682.16
2022-10-23T01:57:09.476Z,99686.63
2022-10-23T01:59:15.936Z,99671.94
2022-10-23T02:01:24.484Z,99663.88
2022-10-23T02:03:30.097Z,99674.66
2022-10-23T02:05:33.270Z,99667.22
2022-10-23T02:07:37.130Z,99661.34
2022-10-23T02:09:40.413Z,99656.34
2022-10-23T02:11:51.476Z,99645.09
2022-10-23T02:14:00.868Z,99647.34
2022-10-23T02:16:11.852Z,99649.25
2022-10-23T02:18:27.900Z,99646.34
2022-10-23T02:20:36.982Z,99647.22
2022-10-23T02:22:43.449Z,99644.22
2022-10-23T02:24:51.086Z,99642.59
2022-10-23T02:26:56.780Z,99636.13
2022-10-23T02:29:07.095Z,99632.47
2022-10-23T02:31:13.600Z,99637.19
2022-10-23T02:33:18.811Z,99634.75
2022-10-23T02:35:24.232Z,99621.97
2022-10-23T02:37:26.942Z,99624.25
2022-10-23T02:39:30.178Z,99622.63
2022-10-23T02:41:42.544Z,99626.28
2022-10-23T02:43:58.521Z,99613.47
2022-10-23T02:46:11.248Z,99617.16
2022-10-23T02:48:23.597Z,99618.72
2022-10-23T02:50:34.061Z,99611.19
2022-10-23T02:52:42.960Z,99608.78
2022-10-23T02:54:58.936Z,99605.91
2022-10-23T02:57:06.487Z,99607.75
2022-10-23T02:59:18.457Z,99597.19
2022-10-23T03:01:27.300Z,99599.41
2022-10-23T03:03:36.690Z,99601.59
2022-10-23T03:05:41.647Z,99590.22
2022-10-23T03:07:45.477Z,99589.41
2022-10-23T03:09:48.294Z,99596.31
2022-10-23T03:11:50.973Z,99587.94
2022-10-23T03:13:53.820Z,99591.97
2022-10-23T03:15:56.448Z,99597.50
2022-10-23T03:17:59.054Z,99601.97
2022-10-23T03:20:03.106Z,99596.69
2022-10-23T03:22:05.790Z,99598.34
2022-10-23T03:24:08.724Z,99589.03
2022-10-23T03:26:11.373Z,99588.88
2022-10-23T03:28:14.002Z,99578.56
2022-10-23T03:30:16.745Z,99569.81
2022-10-23T03:32:19.401Z,99571.88
2022-10-23T03:34:22.136Z,99562.56
2022-10-23T03:36:26.254Z,99568.28
2022-10-23T03:38:28.924Z,99570.28
2022-10-23T03:40:31.729Z,99564.75
2022-10-23T03:42:34.331Z,99563.16
2022-10-23T03:44:37.003Z,99569.63
2022-10-23T03:46:40.582Z,99571.28
2022-10-23T03:48:43.308Z,99561.38
2022-10-23T03:50:45.938Z,99558.38
2022-10-23T03:52:49.997Z,99556.19
2022-10-23T03:54:52.746Z,99560.44
2022-10-23T03:56:57.513Z,99554.34
2022-10-23T03:59:03.912Z,99539.69
2022-10-23T04:01:06.657Z,99539.59
2022-10-23T04:03:09.319Z,99542.16
2022-10-23T04:05:12.046Z,99534.59
2022-10-23T04:07:14.717Z,99538.84
2022-10-23T04:09:18.721Z,99531.53
2022-10-23T04:11:21.399Z,99534.53
2022-10-23T04:13:24.024Z,99539.38
2022-10-23T04:15:26.649Z,99538.91
2022-10-23T04:17:29.336Z,99541.09
2022-10-23T04:19:32.126Z,99538.25
2022-10-23T04:21:35.003Z,99524.34
2022-10-23T04:23:38.198Z,99524.78
2022-10-23T04:25:42.281Z,99532.59
2022-10-23T04:27:45.227Z,99542.13
2022-10-23T04:29:49.128Z,99546.16
2022-10-23T04:31:52.354Z,99537.19
2022-10-23T04:33:55.148Z,99534.53
2022-10-23T04:35:56.844Z,99531.91
2022-10-23T04:37:59.528Z,99532.50
2022-10-23T04:40:02.138Z,99533.66
2022-10-23T04:42:06.287Z,99534.34
2022-10-23T04:44:09.367Z,99521.13
2022-10-23T04:46:11.992Z,99514.00
2022-10-23T04:48:14.626Z,99520.88
2022-10-23T04:50:17.626Z,99523.31
2022-10-23T04:52:20.292Z,99523.53
2022-10-23T04:54:22.895Z,99521.63
2022-10-23T04:56:25.568Z,99509.44
2022-10-23T04:58:30.332Z,99513.91
2022-10-23T05:00:33.073Z,99505.16
2022-10-23T05:02:35.861Z,99516.75
2022-10-23T05:04:38.701Z,99501.97
2022-10-23T05:06:41.332Z,99503.13
2022-10-23T05:08:43.935Z,99504.72
2022-10-23T05:10:46.577Z,99489.91
2022-10-23T05:12:49.226Z,99490.69
2022-10-23T05:14:53.319Z,99481.72
2022-10-23T05:17:00.024Z,99481.50
2022-10-23T05:19:03.329Z,99489.44
2022-10-23T05:21:11.299Z,99485.53
2022-10-23T05:23:17.648Z,99488.75
2022-10-23T05:25:20.657Z,99492.34
2022-10-23T05:27:23.282Z,99482.44
2022-10-23T05:29:25.997Z,99476.78
2022-10-23T05:31:30.310Z,99474.59
2022-10-23T05:33:34.050Z,99489.19
2022-10-23T05:35:37.805Z,99485.06
2022-10-23T05:37:44.887Z,99483.38
2022-10-23T05:39:47.529Z,99494.16
2022-10-23T05:41:51.155Z,99488.06
2022-10-23T05:43:54.130Z,99490.97
2022-10-23T05:45:56.805Z,99481.97
2022-10-23T05:48:10.896Z,99482.78
2022-10-23T05:50:19.608Z,99479.91
2022-10-23T05:52:22.206Z,99489.19
2022-10-23T05:54:24.895Z,99480.47
2022-10-23T05:56:27.578Z,99475.63
2022-10-23T05:58:30.252Z,99481.16
2022-10-23T06:00:33.071Z,99483.56
2022-10-23T06:02:35.833Z,99482.53
2022-10-23T06:04:39.940Z,99481.06
2022-10-23T06:06:42.727Z,99477.94
2022-10-23T06:08:45.339Z,99474.75
2022-10-23T06:10:48.017Z,99485.41
2022-10-23T06:12:50.636Z,99473.22
2022-10-23T06:14:53.284Z,99471.47
2022-10-23T06:16:55.893Z,99457.25
2022-10-23T06:18:58.661Z,99452.41
2022-10-23T06:21:02.755Z,99444.47
2022-10-23T06:23:05.539Z,99455.19
2022-10-23T06:25:09.518Z,99456.66
2022-10-23T06:27:12.197Z,99447.84
2022-10-23T06:29:14.870Z,99452.56
2022-10-23T06:31:19.131Z,99447.16
2022-10-23T06:33:21.762Z,99439.59
2022-10-23T06:35:24.510Z,99434.75
2022-10-23T06:37:28.497Z,99435.44
2022-10-23T06:39:32.297Z,99439.78
2022-10-23T06:41:35.121Z,99437.63
2022-10-23T06:43:37.786Z,99438.16
2022-10-23T06:45:40.476Z,99438.28
2022-10-23T06:47:43.457Z,99435.28
2022-10-23T06:49:46.283Z,99440.66
2022-10-23T06:51:48.952Z,99444.31
2022-10-23T06:53:52.885Z,99434.53
2022-10-23T06:56:00.600Z,99433.16
2022-10-23T06:58:03.262Z,99429.56
2022-10-23T07:00:07.061Z,99436.06
2022-10-23T07:02:10.230Z,99435.25
2022-10-23T07:04:13.672Z,99433.25
2022-10-23T07:06:16.486Z,99430.81
2022-10-23T07:08:19.112Z,99425.22
2022-10-23T07:10:23.227Z,99424.56
2022-10-23T07:12:26.049Z,99422.03
2022-10-23T07:14:32.068Z,99431.00
2022-10-23T07:16:34.669Z,99425.31
2022-10-23T07:18:37.379Z,99428.94
2022-10-23T07:20:39.993Z,99425.94
2022-10-23T07:22:42.842Z,99427.97
2022-10-23T07:24:45.621Z,99418.81
2022-10-23T07:28:55.100Z,99415.66
2022-10-23T07:30:58.906Z,99423.53
2022-10-23T07:33:01.523Z,99422.00
2022-10-23T07:35:04.533Z,99414.44
2022-10-23T07:37:07.251Z,99416.34
2022-10-23T07:39:10.032Z,99419.97
2022-10-23T07:41:13.142Z,99424.09
2022-10-23T07:43:18.357Z,99421.19
2022-10-23T07:45:21.145Z,99425.47
2022-10-23T07:47:23.756Z,99428.66
2022-10-23T07:49:26.527Z,99419.97
2022-10-23T07:51:29.311Z,99416.34
2022-10-23T07:53:32.033Z,99408.53
2022-10-23T07:55:34.667Z,99417.88
2022-10-23T07:57:39.622Z,99412.22
2022-10-23T07:59:43.649Z,99410.44
2022-10-23T08:01:49.511Z,99405.78
2022-10-23T08:03:54.155Z,99404.06
2022-10-23T08:05:57.190Z,99404.13
2022-10-23T08:07:59.800Z,99401.84
2022-10-23T08:10:02.467Z,99405.34
2022-10-23T08:12:05.388Z,99403.31
2022-10-23T08:14:08.280Z,99402.28
2022-10-23T08:16:12.410Z,99397.09
2022-10-23T08:18:15.694Z,99404.66
2022-10-23T08:20:18.468Z,99398.31
2022-10-23T08:22:21.132Z,99394.19
2022-10-23T08:24:24.255Z,99398.25
2022-10-23T08:26:29.278Z,99395.13
2022-10-23T08:28:33.249Z,99393.44
2022-10-23T08:30:36.314Z,99385.25
2022-10-23T08:32:40.503Z,99377.28
2022-10-23T08:34:43.168Z,99363.84
2022-10-23T08:36:45.814Z,99362.31
2022-10-23T08:38:48.531Z,99366.09
2022-10-23T08:40:51.298Z,99369.31
2022-10-23T08:43:00.883Z,99368.84
2022-10-23T08:45:09.019Z,99365.75
2022-10-23T08:47:15.593Z,99364.72
2022-10-23T08:49:30.601Z,99368.97
2022-10-23T08:51:42.357Z,99361.53
2022-10-23T08:53:53.326Z,99364.22
2022-10-23T08:56:03.033Z,99351.13
2022-10-23T08:58:08.362Z,99355.41
2022-10-23T09:00:15.072Z,99354.31
2022-10-23T09:02:21.577Z,99349.78
2022-10-23T09:04:25.764Z,99352.69
2022-10-23T09:06:37.901Z,99356.66
2022-10-23T09:08:48.566Z,99346.19
2022-10-23T09:11:04.952Z,99348.56
2022-10-23T09:13:22.694Z,99332.16
2022-10-23T09:15:31.515Z,99341.53
2022-10-23T09:17:35.625Z,99337.41
2022-10-23T09:19:39.631Z,99333.44
2022-10-23T09:21:42.358Z,99337.13
2022-10-23T09:23:45.036Z,99338.97
2022-10-23T09:25:50.877Z,99345.69
2022-10-23T09:27:57.430Z,99332.63
2022-10-23T09:30:02.643Z,99335.25
2022-10-23T09:32:07.584Z,99336.31
2022-10-23T09:34:20.672Z,99333.25
2022-10-23T09:36:25.932Z,99327.78
2022-10-23T09:38:32.639Z,99327.22
2022-10-23T09:40:41.627Z,99336.47
2022-10-23T09:42:56.042Z,99322.06
2022-10-23T09:44:58.761Z,99334.56
2022-10-23T09:47:11.102Z,99329.63
2022-10-23T09:49:19.193Z,99323.94
2022-10-23T09:51:24.584Z,99306.56
2022-10-23T09:53:32.425Z,99303.66
2022-10-23T09:55:35.355Z,99303.25
2022-10-23T09:57:43.301Z,99299.16
2022-10-23T09:59:52.218Z,99300.50
2022-10-23T10:01:57.729Z,99300.50
2022-10-23T10:04:00.687Z,99295.78
2022-10-23T10:06:05.473Z,99296.31
2022-10-23T10:08:19.138Z,99288.44
2022-10-23T10:10:21.941Z,99289.84
2022-10-23T10:12:35.618Z,99287.91
2022-10-23T10:14:52.759Z,99296.94
2022-10-23T10:16:59.774Z,99289.75
2022-10-23T10:19:08.241Z,99286.16
2022-10-23T10:21:18.321Z,99286.25
2022-10-23T10:23:29.643Z,99287.81
2022-10-23T10:25:37.858Z,99273.97
2022-10-23T10:27:53.496Z,99270.66
2022-10-23T10:30:05.249Z,99275.00
2022-10-23T10:32:25.039Z,99279.28
2022-10-23T10:34:31.317Z,99271.13
2022-10-23T10:36:45.169Z,99264.88
2022-10-23T10:38:52.454Z,99257.38
2022-10-23T10:41:19.190Z,99262.31
2022-10-23T10:43:32.934Z,99250.00
2022-10-23T10:45:39.557Z,99249.63
2022-10-23T10:47:51.677Z,99230.47
2022-10-23T10:50:07.911Z,99229.56
2022-10-23T10:52:15.861Z,99226.09
2022-10-23T10:54:34.947Z,99226.22
2022-10-23T10:56:40.804Z,99224.72
2022-10-23T10:58:48.989Z,99213.53
2022-10-23T11:00:57.032Z,99208.63
2022-10-23T11:03:03.662Z,99210.31
2022-10-23T11:05:15.999Z,99203.31
2022-10-23T11:07:23.382Z,99203.63
2022-10-23T11:09:29.979Z,99202.22
2022-10-23T11:11:40.489Z,99201.31
2022-10-23T11:13:44.950Z,99200.28
2022-10-23T11:15:48.157Z,99198.47
2022-10-23T11:17:55.114Z,99188.94
2022-10-23T11:20:04.041Z,99192.91
2022-10-23T11:22:13.307Z,99192.38
2022-10-23T11:24:55.778Z,99175.53
2022-10-23T11:27:27.131Z,99176.03
2022-10-23T11:29:51.709Z,99174.44
2022-10-23T11:32:07.411Z,99167.09
2022-10-23T11:34:38.421Z,99157.00
2022-10-23T11:36:47.759Z,99149.16
2022-10-23T11:38:53.012Z,99151.00
2022-10-23T11:40:58.220Z,99146.03
2022-10-23T11:43:02.308Z,99133.50
2022-10-23T11:45:05.761Z,99130.94
2022-10-23T11:47:36.301Z,99128.38
2022-10-23T11:49:40.828Z,99130.41
2022-10-23T11:51:43.570Z,99119.53
2022-10-23T11:53:46.201Z,99118.53
2022-10-23T11:56:00.770Z,99118.09
2022-10-23T11:58:21.270Z,99108.47
2022-10-23T12:00:25.234Z,99110.91
2022-10-23T12:02:32.609Z,99110.19
2022-10-23T12:04:42.089Z,99117.09
2022-10-23T12:06:48.661Z,99112.50
2022-10-23T12:08:54.181Z,99117.69
2022-10-23T12:10:56.817Z,99125.91
2022-10-23T12:13:01.860Z,99129.75
2022-10-23T12:15:19.750Z,99125.56
2022-10-23T12:17:35.734Z,99120.38
2022-10-23T12:19:49.002Z,99104.44
2022-10-23T12:21:53.737Z,99106.06
2022-10-23T12:24:31.971Z,99095.56
2022-10-23T12:26:45.692Z,99098.78
2022-10-23T12:28:55.728Z,99097.75
2022-10-23T12:31:12.353Z,99098.75
2022-10-23T12:33:22.448Z,99091.91
2022-10-23T12:35:54.686Z,99072.06
2022-10-23T12:38:09.588Z,99079.88
2022-10-23T12:40:13.326Z,99060.81
2022-10-23T12:42:20.606Z,99052.47
2022-10-23T12:44:25.239Z,99048.19
2022-10-23T12:46:37.487Z,99045.41
2022-10-23T12:48:49.492Z,99043.88
2022-10-23T12:50:54.576Z,99045.78
2022-10-23T12:52:59.039Z,99037.69
2022-10-23T12:55:02.063Z,99035.72
2022-10-23T12:57:20.060Z,99028.03
2022-10-23T12:59:27.078Z,99031.81
2022-10-23T13:01:31.077Z,99017.50
2022-10-23T13:03:36.300Z,99025.16
2022-10-23T13:05:39.124Z,99016.53
2022-10-23T13:07:46.428Z,99014.94
2022-10-23T13:09:49.716Z,99022.25
2022-10-23T13:11:53.228Z,99026.56
2022-10-23T13:13:55.902Z,99022.97
2022-10-23T13:15:58.549Z,99013.84
2022-10-23T13:18:03.548Z,99010.75
2022-10-23T13:20:20.216Z,98995.19
2022-10-23T13:22:23.662Z,99006.41
2022-10-23T13:24:28.606Z,99004.41
2022-10-23T13:26:33.849Z,98999.13
2022-10-23T13:28:43.760Z,98992.44
2022-10-23T13:30:57.758Z,98995.22
2022-10-23T13:33:00.910Z,98989.63
2022-10-23T13:35:04.330Z,98995.47
2022-10-23T13:37:26.833Z,98988.91
2022-10-23T13:39:31.752Z,98977.13
2022-10-23T13:41:38.123Z,98980.19
2022-10-23T13:43:41.010Z,98977.13
2022-10-23T13:45:43.639Z,98978.84
2022-10-23T13:47:46.489Z,98984.91
2022-10-23T13:49:49.261Z,98965.94
2022-10-23T13:51:53.445Z,98969.31
2022-10-23T13:53:59.458Z,98971.31
2022-10-23T13:56:02.079Z,98963.75
2022-10-23T13:58:04.740Z,98961.06
2022-10-23T14:00:09.270Z,98961.69
2022-10-23T14:02:20.481Z,98955.09
2022-10-23T14:04:23.869Z,98948.69
2022-10-23T14:06:26.740Z,98946.66
2022-10-23T14:08:29.359Z,98936.94
2022-10-23T14:10:33.770Z,98930.97
2022-10-23T14:12:41.279Z,98936.53
2022-10-23T14:14:44.066Z,98933.19
2022-10-23T14:16:46.684Z,98933.38
2022-10-23T14:18:49.343Z,98928.28
2022-10-23T14:20:51.983Z,98923.63
2022-10-23T14:22:54.631Z,98918.88
2022-10-23T14:24:58.006Z,98914.97
2022-10-23T14:27:02.010Z,98924.50
2022-10-23T14:29:08.946Z,98921.03
2022-10-23T14:31:16.502Z,98914.91
2022-10-23T14:33:19.134Z,98912.09
2022-10-23T14:35:22.043Z,98915.56
2022-10-23T14:37:24.632Z,98906.69
2022-10-23T14:39:27.229Z,98907.50
2022-10-23T14:41:29.902Z,98918.59
2022-10-23T14:43:33.931Z,98915.78
2022-10-23T14:45:37.475Z,98926.56
2022-10-23T14:47:40.084Z,98920.25
2022-10-23T14:49:42.888Z,98906.81
2022-10-23T14:51:45.586Z,98902.53
2022-10-23T14:53:49.538Z,98895.56
2022-10-23T14:55:52.151Z,98897.44
2022-10-23T14:57:55.928Z,98878.63
2022-10-23T14:59:59.898Z,98878.88
2022-10-23T15:02:02.605Z,98877.19
2022-10-23T15:04:05.543Z,98875.31
2022-10-23T15:06:08.734Z,98884.63
2022-10-23T15:08:11.356Z,98874.78
2022-10-23T15:10:14.263Z,98867.13
2022-10-23T15:12:16.912Z,98881.25
2022-10-23T15:14:19.970Z,98866.16
2022-10-23T15:16:24.902Z,98856.56
2022-10-23T15:18:27.623Z,98851.28
2022-10-23T15:20:30.248Z,98853.78
2022-10-23T15:22:32.910Z,98845.13
2022-10-23T15:24:35.599Z,98852.47
2022-10-23T15:26:38.533Z,98856.16
2022-10-23T15:28:41.161Z,98860.25
2022-10-23T15:30:45.554Z,98860.56
2022-10-23T15:32:49.584Z,98858.25
2022-10-23T15:34:53.696Z,98854.84
2022-10-23T15:36:57.824Z,98861.78
2022-10-23T15:39:00.850Z,98859.81
2022-10-23T15:41:15.256Z,98865.53
2022-10-23T15:43:18.346Z,98860.25
2022-10-23T15:45:21.065Z,98871.75
2022-10-23T15:47:23.722Z,98874.38
2022-10-23T15:49:30.471Z,98873.63
2022-10-23T15:51:33.266Z,98886.94
2022-10-23T15:53:35.898Z,98899.00
2022-10-23T15:55:38.512Z,98898.69
2022-10-23T15:57:42.076Z,98886.41
2022-10-23T15:59:44.707Z,98890.03
2022-10-23T16:01:47.446Z,98884.81
2022-10-23T16:03:50.162Z,98898.34
2022-10-23T16:05:54.158Z,98897.56
2022-10-23T16:07:56.756Z,98914.38
2022-10-23T16:09:59.794Z,98910.09
2022-10-23T16:12:02.572Z,98914.09
2022-10-23T16:14:06.043Z,98906.69
2022-10-23T16:16:09.243Z,98902.78
2022-10-23T16:18:13.048Z,98896.41
2022-10-23T16:20:16.056Z,98906.66
2022-10-23T16:22:20.080Z,98902.69
2022-10-23T16:24:22.729Z,98896.63
2022-10-23T16:26:25.986Z,98900.63
2022-10-23T16:28:28.608Z,98896.56
2022-10-23T16:30:31.363Z,98896.94
2022-10-23T16:32:34.006Z,98895.72
2022-10-23T16:34:36.614Z,98900.31
2022-10-23T16:36:39.402Z,98898.41
2022-10-23T16:38:43.466Z,98905.88
2022-10-23T16:40:52.632Z,98915.09
2022-10-23T16:42:55.279Z,98922.44
2022-10-23T16:44:57.957Z,98937.66
2022-10-23T16:47:00.680Z,98941.88
2022-10-23T16:49:04.114Z,98951.47
2022-10-23T16:51:08.109Z,98948.63
2022-10-23T16:53:10.749Z,98959.47
2022-10-23T16:55:14.770Z,98968.56
2022-10-23T16:57:17.732Z,98962.47
2022-10-23T16:59:20.370Z,98964.66
2022-10-23T17:01:24.584Z,98982.16
2022-10-23T17:03:27.533Z,98976.53
2022-10-23T17:05:33.485Z,98971.31
2022-10-23T17:07:37.135Z,98974.56
2022-10-23T17:09:39.766Z,98982.66
2022-10-23T17:11:46.789Z,98990.41
2022-10-23T17:13:53.974Z,98995.22
2022-10-23T17:16:09.265Z,99011.25
2022-10-23T17:18:11.872Z,99021.97
2022-10-23T17:20:14.592Z,99029.44
2022-10-23T17:22:17.281Z,99042.50
2022-10-23T17:24:20.715Z,99047.84
2022-10-23T17:26:23.510Z,99067.00
2022-10-23T17:28:28.474Z,99068.88
2022-10-23T17:30:31.081Z,99086.72
2022-10-23T17:32:35.558Z,99114.19
2022-10-23T17:34:38.224Z,99105.13
2022-10-23T17:36:43.777Z,99101.41
2022-10-23T17:38:46.914Z,99080.91
2022-10-23T17:40:49.538Z,99029.50
2022-10-23T17:42:52.262Z,99031.66
2022-10-23T17:44:56.396Z,99026.84
2022-10-23T17:46:59.120Z,99003.16
2022-10-23T17:49:03.970Z,98998.91
2022-10-23T17:51:09.151Z,98978.94
2022-10-23T17:53:11.780Z,98915.84
2022-10-23T17:55:14.641Z,98898.81
2022-10-23T17:57:17.293Z,98923.88
2022-10-23T17:59:20.228Z,98939.31
2022-10-23T18:01:26.144Z,98921.47
2022-10-23T18:03:28.929Z,98955.81
2022-10-23T18:05:33.279Z,98941.19
2022-10-23T18:07:35.964Z,98925.72
2022-10-23T18:09:38.615Z,98929.75
2022-10-23T18:11:45.459Z,98959.53
2022-10-23T18:13:51.630Z,98951.28
2022-10-23T18:15:54.236Z,98969.91
2022-10-23T18:17:58.267Z,98979.22
2022-10-23T18:20:02.195Z,98960.59
2022-10-23T18:22:05.050Z,98944.09
2022-10-23T18:24:08.318Z,98927.63
2022-10-23T18:26:16.596Z,98925.75
2022-10-23T18:28:19.817Z,98921.50
2022-10-23T18:30:22.505Z,98922.28
2022-10-23T18:32:25.921Z,98922.81
2022-10-23T18:34:29.895Z,98907.66
2022-10-23T18:36:34.594Z,98919.09
2022-10-23T18:38:37.305Z,98909.81
2022-10-23T18:40:40.956Z,98907.38
2022-10-23T18:42:43.793Z,98900.22
2022-10-23T18:44:49.886Z,98886.66
2022-10-23T18:46:53.352Z,98887.16
2022-10-23T18:48:56.169Z,98891.94
2022-10-23T18:51:01.041Z,98889.03
2022-10-23T18:53:03.985Z,98877.31
2022-10-23T18:55:08.318Z,98872.00
2022-10-23T18:57:10.979Z,98873.88
2022-10-23T19:01:38.170Z,98868.81
2022-10-23T19:03:40.933Z,98868.03
2022-10-23T19:05:44.305Z,98870.41
2022-10-23T19:07:55.632Z,98866.16
2022-10-23T19:10:09.920Z,98866.69
2022-10-23T19:12:34.248Z,98869.09
2022-10-23T19:14:58.276Z,98868.00
2022-10-23T19:17:03.941Z,98864.81
2022-10-23T19:19:12.313Z,98867.47
2022-10-23T19:21:15.547Z,98853.66
2022-10-23T19:23:19.546Z,98848.34
2022-10-23T19:25:26.169Z,98842.50
2022-10-23T19:27:29.382Z,98843.28
2022-10-23T19:29:32.967Z,98844.88
2022-10-23T19:31:35.693Z,98846.75
2022-10-23T19:33:39.323Z,98843.81
2022-10-23T19:35:42.197Z,98844.88
2022-10-23T19:37:45.158Z,98844.88
2022-10-23T19:39:49.328Z,98846.47
2022-10-23T19:41:52.518Z,98839.81
2022-10-23T19:43:55.139Z,98846.47
2022-10-23T19:45:59.458Z,98844.06
2022-10-23T19:48:02.152Z,98850.19
2022-10-23T19:50:05.492Z,98851.78
2022-10-23T19:52:08.254Z,98840.63
2022-10-23T19:54:11.120Z,98850.22
2022-10-23T19:56:15.110Z,98839.03
2022-10-23T19:58:18.732Z,98838.50
2022-10-23T20:00:21.419Z,98839.56
2022-10-23T20:02:24.167Z,98840.88
2022-10-23T20:04:28.728Z,98846.69
2022-10-23T20:06:34.488Z,98846.69
2022-10-23T20:08:37.210Z,98853.56
2022-10-23T20:10:42.170Z,98861.00
2022-10-23T20:12:56.370Z,98866.03
2022-10-23T20:14:59.842Z,98862.31
2022-10-23T20:17:02.602Z,98870.56
2022-10-23T20:19:07.108Z,98865.25
2022-10-23T20:21:09.869Z,98864.97
2022-10-23T20:23:12.596Z,98865.50
2022-10-23T20:25:15.173Z,98863.13
2022-10-23T20:27:18.602Z,98864.19
2022-10-23T20:29:24.593Z,98852.44
2022-10-23T20:31:28.788Z,98854.53
2022-10-23T20:33:31.404Z,98854.47
2022-10-23T20:35:39.018Z,98858.22
2022-10-23T20:37:41.939Z,98855.84
2022-10-23T20:39:44.747Z,98857.47
2022-10-23T20:41:48.245Z,98878.69
2022-10-23T20:43:50.927Z,98873.22
2022-10-23T20:45:54.899Z,98874.06
2022-10-23T20:47:58.291Z,98883.59
2022-10-23T20:50:00.896Z,98880.94
2022-10-23T20:52:03.716Z,98879.59
2022-10-23T20:54:06.978Z,98877.78
2022-10-23T20:56:13.772Z,98892.16
2022-10-23T20:58:16.365Z,98906.53
2022-10-23T21:00:19.071Z,98913.22
2022-10-23T21:02:23.193Z,98925.44
2022-10-23T21:04:28.609Z,98917.47
2022-10-23T21:06:45.759Z,98928.94
2022-10-23T21:08:57.395Z,98923.63
2022-10-23T21:11:00.333Z,98948.09
2022-10-23T21:13:02.943Z,98940.13
2022-10-23T21:15:06.422Z,98941.16
2022-10-23T21:17:11.909Z,98947.56
2022-10-23T21:19:17.184Z,98957.16
2022-10-23T21:21:22.059Z,98956.34
2022-10-23T21:23:24.635Z,98955.81
2022-10-23T21:25:27.414Z,98969.63
2022-10-23T21:27:30.106Z,98971.19
2022-10-23T21:29:32.686Z,98968.25
2022-10-23T21:31:36.091Z,98962.38
2022-10-23T21:33:38.741Z,98959.75
2022-10-23T21:35:52.272Z,98962.41
2022-10-23T21:38:00.809Z,98973.34
2022-10-23T21:40:03.469Z,98975.19
2022-10-23T21:42:06.212Z,98961.09
2022-10-23T21:44:08.853Z,98963.22
2022-10-23T21:46:13.324Z,98954.16
2022-10-23T21:48:15.896Z,98939.53
2022-10-23T21:50:18.509Z,98940.31
2022-10-23T21:52:22.576Z,98931.59
2022-10-23T21:54:25.192Z,98936.41
2022-10-23T21:56:32.036Z,98943.56
2022-10-23T21:58:34.633Z,98944.88
2022-10-23T22:00:37.230Z,98941.91
2022-10-23T22:02:39.910Z,98951.22
2022-10-23T22:04:42.626Z,98956.53
2022-10-23T22:06:46.680Z,98948.06
2022-10-23T22:08:51.812Z,98953.91
2022-10-23T22:10:54.820Z,98955.50
2022-10-23T22:12:57.428Z,98959.19
2022-10-23T22:15:00.087Z,98955.22
2022-10-23T22:17:02.725Z,98955.22
2022-10-23T22:19:05.653Z,98954.16
2022-10-23T22:21:11.289Z,98953.59
2022-10-23T22:23:13.915Z,98956.53
2022-10-23T22:25:18.141Z,98944.03
2022-10-23T22:27:20.732Z,98946.94
2022-10-23T22:29:25.809Z,98940.84
2022-10-23T22:31:30.713Z,98955.69
2022-10-23T22:33:33.310Z,98945.88
2022-10-23T22:35:35.932Z,98947.22
2022-10-23T22:37:38.548Z,98954.13
2022-10-23T22:39:41.316Z,98942.97
2022-10-23T22:41:45.400Z,98947.72
2022-10-23T22:43:48.484Z,98936.59
2022-10-23T22:45:51.081Z,98935.75
2022-10-23T22:47:53.649Z,98937.59
2022-10-23T22:49:56.252Z,98946.34
2022-10-23T22:51:58.866Z,98939.94
2022-10-23T22:54:01.535Z,98936.19
2022-10-23T22:56:07.475Z,98934.56
2022-10-23T22:58:11.434Z,98941.78
2022-10-23T23:00:15.057Z,98931.50
2022-10-23T23:02:17.757Z,98935.22
2022-10-23T23:06:42.887Z,98940.03
2022-10-23T23:08:46.763Z,98943.47
2022-10-23T23:10:53.262Z,98936.09
2022-10-23T23:12:55.870Z,98942.25
2022-10-23T23:15:02.000Z,98929.47
2022-10-23T23:17:05.987Z,98934.00
2022-10-23T23:19:08.669Z,98941.94
2022-10-23T23:21:11.259Z,98940.88
2022-10-23T23:23:14.347Z,98935.28
2022-10-23T23:25:17.030Z,98936.88
2022-10-23T23:27:19.618Z,98936.09
2022-10-23T23:29:22.640Z,98933.16
2022-10-23T23:31:27.876Z,98927.28
2022-10-23T23:33:30.453Z,98921.97
2022-10-23T23:35:33.119Z,98928.88
2022-10-23T23:37:35.733Z,98930.75
2022-10-23T23:39:38.334Z,98927.56
2022-10-23T23:41:40.896Z,98931.81
2022-10-23T23:43:44.162Z,98933.94
2022-10-23T23:45:46.842Z,98925.16
2022-10-23T23:47:50.822Z,98934.47
2022-10-23T23:49:53.415Z,98927.81
2022-10-23T23:51:55.968Z,98932.88
2022-10-23T23:53:58.585Z,98941.09
2022-10-23T23:56:01.228Z,98934.22
2022-10-23T23:58:03.832Z,98926.50
